sensor_id;sensor_type;location;lat;lon;timestamp;pressure;altitude;pressure_sealevel;temperature;humidity
7774;BME280;3931;42.260;23.116;2022-11-21T00:01:15;93822.63;;;20.31;100.00
7774;BME280;3931;42.260;23.116;2022-11-21T00:03:42;93979.69;;;21.27;89.61
7774;BME280;3931;42.260;23.116;2022-11-21T00:06:08;93860.22;;;20.68;95.55
7774;BME280;3931;42.260;23.116;2022-11-21T00:08:34;93823.69;;;20.55;98.31
7774;BME280;3931;42.260;23.116;2022-11-21T00:11:01;93750.03;;;19.96;100.00
7774;BME280;3931;42.260;23.116;2022-11-21T00:13:27;93680.44;;;19.82;100.00
7774;BME280;3931;42.260;23.116;2022-11-21T00:15:53;93698.75;;;20.22;100.00
7774;BME280;3931;42.260;23.116;2022-11-21T00:18:19;93728.03;;;20.26;100.00
7774;BME280;3931;42.260;23.116;2022-11-21T00:20:45;93679.88;;;19.83;100.00
7774;BME280;3931;42.260;23.116;2022-11-21T00:23:12;93601.59;;;19.93;100.00
7774;BME280;3931;42.260;23.116;2022-11-21T00:25:38;93626.31;;;19.94;100.00
7774;BME280;3931;42.260;23.116;2022-11-21T00:28:04;93528.66;;;19.80;100.00
7774;BME280;3931;42.260;23.116;2022-11-21T00:30:31;93516.75;;;19.27;100.00
7774;BME280;3931;42.260;23.116;2022-11-21T00:32:57;93407.75;;;19.36;100.00
7774;BME280;3931;42.260;23.116;2022-11-21T00:35:23;93475.56;;;19.48;100.00
7774;BME280;3931;42.260;23.116;2022-11-21T00:37:49;93542.88;;;19.95;100.00
7774;BME280;3931;42.260;23.116;2022-11-21T00:40:16;93712.53;;;20.46;100.00
7774;BME280;3931;42.260;23.116;2022-11-21T00:42:42;93746.25;;;20.46;100.00
7774;BME280;3931;42.260;23.116;2022-11-21T00:45:09;93751.13;;;20.19;100.00
7774;BME280;3931;42.260;23.116;2022-11-21T00:47:35;93681.66;;;20.07;100.00
7774;BME280;3931;42.260;23.116;2022-11-21T00:50:01;93659.66;;;19.98;100.00
7774;BME280;3931;42.260;23.116;2022-11-21T00:52:28;93713.22;;;20.13;100.00
7774;BME280;3931;42.260;23.116;2022-11-21T00:54:54;93621.41;;;19.61;100.00
7774;BME280;3931;42.260;23.116;2022-11-21T00:57:21;93667.88;;;19.83;100.00
7774;BME280;3931;42.260;23.116;2022-11-21T00:59:47;93727.69;;;20.04;100.00
7774;BME280;3931;42.260;23.116;2022-11-21T01:02:13;93754.44;;;20.31;100.00
7774;BME280;3931;42.260;23.116;2022-11-21T01:04:39;93857.84;;;20.59;97.16
7774;BME280;3931;42.260;23.116;2022-11-21T01:07:05;93811.38;;;20.05;100.00
7774;BME280;3931;42.260;23.116;2022-11-21T01:09:31;93779.41;;;20.08;100.00
7774;BME280;3931;42.260;23.116;2022-11-21T01:11:57;93806.31;;;20.43;100.00
7774;BME280;3931;42.260;23.116;2022-11-21T01:14:24;93866.03;;;20.17;97.84
7774;BME280;3931;42.260;23.116;2022-11-21T01:16:51;93791.06;;;19.99;100.00
7774;BME280;3931;42.260;23.116;2022-11-21T01:19:17;93770.97;;;19.82;100.00
7774;BME280;3931;42.260;23.116;2022-11-21T01:21:43;93868.88;;;20.30;95.27
7774;BME280;3931;42.260;23.116;2022-11-21T01:24:10;93982.97;;;20.02;87.00
7774;BME280;3931;42.260;23.116;2022-11-21T01:26:37;93998.97;;;20.39;84.15
7774;BME280;3931;42.260;23.116;2022-11-21T01:29:03;94006.22;;;20.47;84.26
7774;BME280;3931;42.260;23.116;2022-11-21T01:31:30;94021.88;;;20.43;81.45
7774;BME280;3931;42.260;23.116;2022-11-21T01:33:58;94045.50;;;20.66;80.23
7774;BME280;3931;42.260;23.116;2022-11-21T01:36:26;93914.66;;;20.25;90.82
7774;BME280;3931;42.260;23.116;2022-11-21T01:38:53;93834.31;;;19.78;96.21
7774;BME280;3931;42.260;23.116;2022-11-21T01:41:21;93918.53;;;20.22;89.76
7774;BME280;3931;42.260;23.116;2022-11-21T01:43:48;93836.31;;;20.09;96.14
7774;BME280;3931;42.260;23.116;2022-11-21T01:46:16;93837.91;;;19.78;95.65
7774;BME280;3931;42.260;23.116;2022-11-21T01:48:47;93905.19;;;20.42;91.00
7774;BME280;3931;42.260;23.116;2022-11-21T01:51:19;93977.25;;;20.39;85.83
7774;BME280;3931;42.260;23.116;2022-11-21T01:53:50;94036.50;;;20.67;81.62
7774;BME280;3931;42.260;23.116;2022-11-21T01:56:18;94042.59;;;20.84;81.27
7774;BME280;3931;42.260;23.116;2022-11-21T01:58:45;93919.66;;;20.72;88.81
7774;BME280;3931;42.260;23.116;2022-11-21T02:01:12;93753.28;;;19.87;100.00
7774;BME280;3931;42.260;23.116;2022-11-21T02:03:39;93700.72;;;19.88;100.00
7774;BME280;3931;42.260;23.116;2022-11-21T02:06:08;93679.38;;;20.18;100.00
7774;BME280;3931;42.260;23.116;2022-11-21T02:08:35;93675.53;;;19.82;100.00
7774;BME280;3931;42.260;23.116;2022-11-21T02:11:11;93671.22;;;19.94;100.00
7774;BME280;3931;42.260;23.116;2022-11-21T02:13:39;93568.75;;;19.54;100.00
7774;BME280;3931;42.260;23.116;2022-11-21T02:16:06;93591.28;;;19.48;100.00
7774;BME280;3931;42.260;23.116;2022-11-21T02:18:32;93589.22;;;19.75;100.00
7774;BME280;3931;42.260;23.116;2022-11-21T02:21:04;93691.81;;;20.10;100.00
7774;BME280;3931;42.260;23.116;2022-11-21T02:23:38;93667.41;;;20.05;100.00
7774;BME280;3931;42.260;23.116;2022-11-21T02:26:07;93714.28;;;20.10;100.00
7774;BME280;3931;42.260;23.116;2022-11-21T02:28:33;93795.84;;;20.44;98.40
7774;BME280;3931;42.260;23.116;2022-11-21T02:30:59;93805.19;;;20.20;96.78
7774;BME280;3931;42.260;23.116;2022-11-21T02:33:25;93860.66;;;20.32;94.22
7774;BME280;3931;42.260;23.116;2022-11-21T02:35:56;93872.53;;;20.52;93.47
7774;BME280;3931;42.260;23.116;2022-11-21T02:38:24;93847.22;;;20.12;94.68
7774;BME280;3931;42.260;23.116;2022-11-21T02:41:00;93982.03;;;20.12;84.90
7774;BME280;3931;42.260;23.116;2022-11-21T02:43:30;94086.03;;;20.39;72.23
7774;BME280;3931;42.260;23.116;2022-11-21T02:45:57;94080.56;;;20.46;72.71
7774;BME280;3931;42.260;23.116;2022-11-21T02:48:23;94082.78;;;20.34;72.13
7774;BME280;3931;42.260;23.116;2022-11-21T02:50:49;94069.06;;;20.76;72.30
7774;BME280;3931;42.260;23.116;2022-11-21T02:53:17;94041.44;;;20.93;75.04
7774;BME280;3931;42.260;23.116;2022-11-21T02:55:44;93900.56;;;19.99;90.30
7774;BME280;3931;42.260;23.116;2022-11-21T02:58:10;93816.97;;;20.18;95.69
7774;BME280;3931;42.260;23.116;2022-11-21T03:00:39;93826.47;;;20.02;94.78
7774;BME280;3931;42.260;23.116;2022-11-21T03:03:05;93943.47;;;20.13;86.83
7774;BME280;3931;42.260;23.116;2022-11-21T03:05:32;93906.97;;;20.13;89.08
7774;BME280;3931;42.260;23.116;2022-11-21T03:07:58;93762.25;;;19.86;100.00
7774;BME280;3931;42.260;23.116;2022-11-21T03:10:24;93690.66;;;19.40;100.00
7774;BME280;3931;42.260;23.116;2022-11-21T03:12:50;93664.13;;;19.41;100.00
7774;BME280;3931;42.260;23.116;2022-11-21T03:15:25;93937.03;;;19.86;89.33
7774;BME280;3931;42.260;23.116;2022-11-21T03:17:52;93990.91;;;19.66;82.20
7774;BME280;3931;42.260;23.116;2022-11-21T03:20:19;94008.97;;;20.02;80.40
7774;BME280;3931;42.260;23.116;2022-11-21T03:22:45;94016.00;;;20.09;79.34
7774;BME280;3931;42.260;23.116;2022-11-21T03:25:11;94016.34;;;19.87;80.47
7774;BME280;3931;42.260;23.116;2022-11-21T03:27:37;94014.09;;;19.85;78.86
7774;BME280;3931;42.260;23.116;2022-11-21T03:30:04;94030.88;;;20.22;76.58
7774;BME280;3931;42.260;23.116;2022-11-21T03:32:30;94032.22;;;20.34;76.86
7774;BME280;3931;42.260;23.116;2022-11-21T03:34:57;94031.19;;;20.19;75.25
7774;BME280;3931;42.260;23.116;2022-11-21T03:37:23;94023.94;;;19.92;75.51
7774;BME280;3931;42.260;23.116;2022-11-21T03:39:49;94030.00;;;20.46;73.85
7774;BME280;3931;42.260;23.116;2022-11-21T03:42:15;94036.34;;;20.47;73.19
7774;BME280;3931;42.260;23.116;2022-11-21T03:44:41;94036.22;;;20.26;73.12
7774;BME280;3931;42.260;23.116;2022-11-21T03:47:07;94030.38;;;20.05;73.75
7774;BME280;3931;42.260;23.116;2022-11-21T03:49:34;94034.91;;;20.27;71.51
7774;BME280;3931;42.260;23.116;2022-11-21T03:52:00;94032.13;;;20.08;69.67
7774;BME280;3931;42.260;23.116;2022-11-21T03:54:26;94055.16;;;20.20;68.98
7774;BME280;3931;42.260;23.116;2022-11-21T03:56:53;94029.31;;;20.40;67.42
7774;BME280;3931;42.260;23.116;2022-11-21T03:59:19;94021.66;;;20.41;67.71
7774;BME280;3931;42.260;23.116;2022-11-21T04:01:45;94029.59;;;20.55;67.76
7774;BME280;3931;42.260;23.116;2022-11-21T04:04:11;94028.53;;;20.26;68.93
7774;BME280;3931;42.260;23.116;2022-11-21T04:06:37;94026.75;;;20.42;68.50
7774;BME280;3931;42.260;23.116;2022-11-21T04:09:04;94035.28;;;20.18;70.11
7774;BME280;3931;42.260;23.116;2022-11-21T04:11:30;94009.00;;;20.15;71.31
7774;BME280;3931;42.260;23.116;2022-11-21T04:13:56;94012.72;;;19.73;72.15
7774;BME280;3931;42.260;23.116;2022-11-21T04:16:22;93993.84;;;19.74;73.27
7774;BME280;3931;42.260;23.116;2022-11-21T04:18:48;94004.84;;;19.90;72.94
7774;BME280;3931;42.260;23.116;2022-11-21T04:21:15;93976.03;;;19.71;74.65
7774;BME280;3931;42.260;23.116;2022-11-21T04:23:41;93985.44;;;19.74;73.19
7774;BME280;3931;42.260;23.116;2022-11-21T04:26:08;94014.53;;;19.89;72.84
7774;BME280;3931;42.260;23.116;2022-11-21T04:28:34;94016.06;;;19.72;73.02
7774;BME280;3931;42.260;23.116;2022-11-21T04:31:03;94024.00;;;20.23;71.82
7774;BME280;3931;42.260;23.116;2022-11-21T04:33:30;94039.63;;;20.00;71.14
7774;BME280;3931;42.260;23.116;2022-11-21T04:35:56;94030.88;;;20.22;70.31
7774;BME280;3931;42.260;23.116;2022-11-21T04:38:22;94047.50;;;20.20;69.55
7774;BME280;3931;42.260;23.116;2022-11-21T04:40:48;94062.78;;;20.06;68.39
7774;BME280;3931;42.260;23.116;2022-11-21T04:43:15;94061.31;;;20.37;67.27
7774;BME280;3931;42.260;23.116;2022-11-21T04:45:41;94058.06;;;20.78;65.38
7774;BME280;3931;42.260;23.116;2022-11-21T04:48:09;94079.88;;;20.40;65.22
7774;BME280;3931;42.260;23.116;2022-11-21T04:50:35;94078.59;;;20.73;63.43
7774;BME280;3931;42.260;23.116;2022-11-21T04:53:01;94090.00;;;20.49;63.66
7774;BME280;3931;42.260;23.116;2022-11-21T04:55:29;94075.56;;;20.71;62.71
7774;BME280;3931;42.260;23.116;2022-11-21T04:57:56;94088.06;;;20.57;63.41
7774;BME280;3931;42.260;23.116;2022-11-21T05:00:23;94099.34;;;20.83;61.92
7774;BME280;3931;42.260;23.116;2022-11-21T05:02:49;94113.69;;;20.34;61.88
7774;BME280;3931;42.260;23.116;2022-11-21T05:05:15;94122.97;;;20.61;61.67
7774;BME280;3931;42.260;23.116;2022-11-21T05:07:41;94101.88;;;20.99;60.73
7774;BME280;3931;42.260;23.116;2022-11-21T05:10:08;94107.13;;;20.77;60.34
7774;BME280;3931;42.260;23.116;2022-11-21T05:12:34;94107.97;;;20.72;59.77
7774;BME280;3931;42.260;23.116;2022-11-21T05:15:19;94102.94;;;20.96;58.99
7774;BME280;3931;42.260;23.116;2022-11-21T05:17:46;94109.84;;;20.82;60.37
7774;BME280;3931;42.260;23.116;2022-11-21T05:20:13;94101.72;;;20.79;59.79
7774;BME280;3931;42.260;23.116;2022-11-21T05:22:39;94092.63;;;21.04;58.93
7774;BME280;3931;42.260;23.116;2022-11-21T05:25:06;94105.09;;;21.35;58.38
7774;BME280;3931;42.260;23.116;2022-11-21T05:27:32;94116.28;;;20.32;60.06
7774;BME280;3931;42.260;23.116;2022-11-21T05:29:58;94119.00;;;20.70;59.18
7774;BME280;3931;42.260;23.116;2022-11-21T05:32:24;94122.81;;;21.17;58.62
7774;BME280;3931;42.260;23.116;2022-11-21T05:34:51;94146.19;;;21.38;57.46
7774;BME280;3931;42.260;23.116;2022-11-21T05:37:17;94115.72;;;20.97;58.23
7774;BME280;3931;42.260;23.116;2022-11-21T05:39:43;94125.69;;;20.67;58.42
7774;BME280;3931;42.260;23.116;2022-11-21T05:42:09;94125.41;;;21.41;56.61
7774;BME280;3931;42.260;23.116;2022-11-21T05:44:35;94133.50;;;21.05;57.47
7774;BME280;3931;42.260;23.116;2022-11-21T05:47:01;94131.25;;;20.85;57.26
7774;BME280;3931;42.260;23.116;2022-11-21T05:49:27;94138.50;;;21.13;56.38
7774;BME280;3931;42.260;23.116;2022-11-21T05:51:54;94158.78;;;20.74;56.88
7774;BME280;3931;42.260;23.116;2022-11-21T05:54:20;94150.97;;;21.43;55.48
7774;BME280;3931;42.260;23.116;2022-11-21T05:56:46;94151.78;;;21.12;56.05
7774;BME280;3931;42.260;23.116;2022-11-21T05:59:12;94152.91;;;21.35;55.61
7774;BME280;3931;42.260;23.116;2022-11-21T06:01:38;94157.69;;;20.95;56.10
7774;BME280;3931;42.260;23.116;2022-11-21T06:04:22;94167.16;;;21.11;56.65
7774;BME280;3931;42.260;23.116;2022-11-21T06:06:48;94180.69;;;20.94;56.86
7774;BME280;3931;42.260;23.116;2022-11-21T06:09:15;94176.38;;;20.93;56.90
7774;BME280;3931;42.260;23.116;2022-11-21T06:11:41;94192.97;;;20.46;57.23
7774;BME280;3931;42.260;23.116;2022-11-21T06:14:07;94180.47;;;21.11;56.28
7774;BME280;3931;42.260;23.116;2022-11-21T06:16:34;94184.63;;;21.36;55.55
7774;BME280;3931;42.260;23.116;2022-11-21T06:19:00;94198.31;;;20.81;56.81
7774;BME280;3931;42.260;23.116;2022-11-21T06:21:27;94200.06;;;20.84;56.87
7774;BME280;3931;42.260;23.116;2022-11-21T06:23:55;94178.97;;;20.91;57.42
7774;BME280;3931;42.260;23.116;2022-11-21T06:26:23;94201.72;;;20.74;57.38
7774;BME280;3931;42.260;23.116;2022-11-21T06:28:50;94207.31;;;20.93;57.44
7774;BME280;3931;42.260;23.116;2022-11-21T06:31:18;94201.63;;;20.48;57.96
7774;BME280;3931;42.260;23.116;2022-11-21T06:33:45;94211.00;;;21.01;56.92
7774;BME280;3931;42.260;23.116;2022-11-21T06:36:13;94219.56;;;20.77;57.17
7774;BME280;3931;42.260;23.116;2022-11-21T06:38:40;94222.28;;;20.82;56.57
7774;BME280;3931;42.260;23.116;2022-11-21T06:41:10;94226.34;;;21.19;56.36
7774;BME280;3931;42.260;23.116;2022-11-21T06:43:37;94223.66;;;20.76;57.61
7774;BME280;3931;42.260;23.116;2022-11-21T06:46:03;94224.06;;;20.67;57.23
7774;BME280;3931;42.260;23.116;2022-11-21T06:48:29;94239.00;;;20.93;56.50
7774;BME280;3931;42.260;23.116;2022-11-21T06:50:56;94240.41;;;20.68;56.75
7774;BME280;3931;42.260;23.116;2022-11-21T06:53:22;94233.97;;;21.05;56.48
7774;BME280;3931;42.260;23.116;2022-11-21T06:55:48;94241.91;;;20.88;56.16
7774;BME280;3931;42.260;23.116;2022-11-21T06:58:14;94268.50;;;20.50;56.09
7774;BME280;3931;42.260;23.116;2022-11-21T07:00:41;94256.34;;;20.97;55.43
7774;BME280;3931;42.260;23.116;2022-11-21T07:03:08;94260.09;;;21.19;54.53
7774;BME280;3931;42.260;23.116;2022-11-21T07:05:34;94289.19;;;20.52;55.24
7774;BME280;3931;42.260;23.116;2022-11-21T07:08:01;94292.91;;;20.79;54.97
7774;BME280;3931;42.260;23.116;2022-11-21T07:10:29;94254.31;;;20.79;54.73
7774;BME280;3931;42.260;23.116;2022-11-21T07:12:56;94281.19;;;20.93;54.92
7774;BME280;3931;42.260;23.116;2022-11-21T07:15:41;94278.38;;;20.93;55.33
7774;BME280;3931;42.260;23.116;2022-11-21T07:18:07;94284.34;;;21.03;54.78
7774;BME280;3931;42.260;23.116;2022-11-21T07:20:33;94294.53;;;21.69;54.11
7774;BME280;3931;42.260;23.116;2022-11-21T07:22:59;94301.19;;;21.09;54.82
7774;BME280;3931;42.260;23.116;2022-11-21T07:25:25;94302.34;;;21.32;54.14
7774;BME280;3931;42.260;23.116;2022-11-21T07:27:52;94294.47;;;21.12;54.85
7774;BME280;3931;42.260;23.116;2022-11-21T07:30:18;94287.34;;;21.11;55.27
7774;BME280;3931;42.260;23.116;2022-11-21T07:32:45;94313.72;;;20.89;54.99
7774;BME280;3931;42.260;23.116;2022-11-21T07:35:11;94314.31;;;20.63;55.95
7774;BME280;3931;42.260;23.116;2022-11-21T07:37:37;94322.50;;;20.98;55.47
7774;BME280;3931;42.260;23.116;2022-11-21T07:40:05;94303.47;;;21.10;55.68
7774;BME280;3931;42.260;23.116;2022-11-21T07:42:31;94320.34;;;21.10;55.64
7774;BME280;3931;42.260;23.116;2022-11-21T07:44:58;94332.41;;;20.86;55.67
7774;BME280;3931;42.260;23.116;2022-11-21T07:47:24;94324.34;;;20.77;55.17
7774;BME280;3931;42.260;23.116;2022-11-21T07:49:51;94318.88;;;20.85;55.26
7774;BME280;3931;42.260;23.116;2022-11-21T07:52:17;94332.56;;;20.75;55.62
7774;BME280;3931;42.260;23.116;2022-11-21T07:54:43;94338.16;;;21.63;54.73
7774;BME280;3931;42.260;23.116;2022-11-21T07:57:09;94336.28;;;21.21;55.54
7774;BME280;3931;42.260;23.116;2022-11-21T07:59:35;94331.22;;;21.51;55.02
7774;BME280;3931;42.260;23.116;2022-11-21T08:02:01;94340.47;;;21.64;54.88
7774;BME280;3931;42.260;23.116;2022-11-21T08:04:28;94334.91;;;21.27;55.23
7774;BME280;3931;42.260;23.116;2022-11-21T08:06:55;94339.81;;;21.08;55.71
7774;BME280;3931;42.260;23.116;2022-11-21T08:09:21;94347.75;;;21.23;55.60
7774;BME280;3931;42.260;23.116;2022-11-21T08:11:47;94356.34;;;20.74;56.20
7774;BME280;3931;42.260;23.116;2022-11-21T08:14:13;94357.19;;;20.88;56.78
7774;BME280;3931;42.260;23.116;2022-11-21T08:16:39;94366.38;;;20.88;56.89
7774;BME280;3931;42.260;23.116;2022-11-21T08:19:05;94368.97;;;21.05;56.40
7774;BME280;3931;42.260;23.116;2022-11-21T08:21:31;94380.00;;;20.60;57.35
7774;BME280;3931;42.260;23.116;2022-11-21T08:23:58;94372.72;;;21.63;56.03
7774;BME280;3931;42.260;23.116;2022-11-21T08:26:24;94370.16;;;20.72;57.17
7774;BME280;3931;42.260;23.116;2022-11-21T08:28:50;94388.75;;;21.18;56.48
7774;BME280;3931;42.260;23.116;2022-11-21T08:31:16;94389.66;;;20.89;57.88
7774;BME280;3931;42.260;23.116;2022-11-21T08:33:42;94397.69;;;20.98;58.67
7774;BME280;3931;42.260;23.116;2022-11-21T08:36:09;94406.88;;;20.80;61.08
7774;BME280;3931;42.260;23.116;2022-11-21T08:38:35;94393.81;;;20.40;61.80
7774;BME280;3931;42.260;23.116;2022-11-21T08:41:02;94378.97;;;20.63;61.53
7774;BME280;3931;42.260;23.116;2022-11-21T08:43:46;94395.25;;;20.70;60.92
7774;BME280;3931;42.260;23.116;2022-11-21T08:46:12;94390.44;;;21.08;60.60
7774;BME280;3931;42.260;23.116;2022-11-21T08:48:38;94384.63;;;20.82;60.65
7774;BME280;3931;42.260;23.116;2022-11-21T08:51:04;94387.47;;;21.19;58.39
7774;BME280;3931;42.260;23.116;2022-11-21T08:53:30;94386.63;;;22.06;56.29
7774;BME280;3931;42.260;23.116;2022-11-21T08:55:56;94389.88;;;21.47;56.53
7774;BME280;3931;42.260;23.116;2022-11-21T08:58:23;94379.81;;;21.51;56.94
7774;BME280;3931;42.260;23.116;2022-11-21T09:00:49;94390.72;;;21.23;55.74
7774;BME280;3931;42.260;23.116;2022-11-21T09:03:15;94391.66;;;21.31;55.90
7774;BME280;3931;42.260;23.116;2022-11-21T09:05:42;94391.16;;;21.27;56.29
7774;BME280;3931;42.260;23.116;2022-11-21T09:08:08;94391.53;;;21.55;55.48
7774;BME280;3931;42.260;23.116;2022-11-21T09:10:34;94398.16;;;21.39;55.84
7774;BME280;3931;42.260;23.116;2022-11-21T09:13:00;94380.72;;;21.41;55.63
7774;BME280;3931;42.260;23.116;2022-11-21T09:15:27;94382.94;;;21.98;54.60
7774;BME280;3931;42.260;23.116;2022-11-21T09:18:12;94396.53;;;21.94;54.01
7774;BME280;3931;42.260;23.116;2022-11-21T09:20:39;94384.41;;;21.67;55.32
7774;BME280;3931;42.260;23.116;2022-11-21T09:23:07;94374.06;;;21.44;54.91
7774;BME280;3931;42.260;23.116;2022-11-21T09:25:33;94383.88;;;21.37;55.45
7774;BME280;3931;42.260;23.116;2022-11-21T09:28:00;94384.13;;;22.03;54.55
7774;BME280;3931;42.260;23.116;2022-11-21T09:30:27;94383.63;;;21.86;54.99
7774;BME280;3931;42.260;23.116;2022-11-21T09:32:53;94390.78;;;20.99;56.18
7774;BME280;3931;42.260;23.116;2022-11-21T09:35:19;94375.91;;;21.04;56.37
7774;BME280;3931;42.260;23.116;2022-11-21T09:37:45;94380.44;;;21.44;55.89
7774;BME280;3931;42.260;23.116;2022-11-21T09:40:13;94382.81;;;21.22;56.70
7774;BME280;3931;42.260;23.116;2022-11-21T09:42:55;94397.53;;;20.90;56.38
7774;BME280;3931;42.260;23.116;2022-11-21T09:45:26;94389.38;;;21.11;56.65
7774;BME280;3931;42.260;23.116;2022-11-21T09:47:56;94395.63;;;20.98;56.17
7774;BME280;3931;42.260;23.116;2022-11-21T09:50:27;94387.84;;;20.67;56.21
7774;BME280;3931;42.260;23.116;2022-11-21T09:52:57;94389.38;;;21.11;56.17
7774;BME280;3931;42.260;23.116;2022-11-21T09:55:35;94393.81;;;21.38;55.23
7774;BME280;3931;42.260;23.116;2022-11-21T09:58:13;94397.28;;;21.31;54.98
7774;BME280;3931;42.260;23.116;2022-11-21T10:00:41;94382.47;;;21.62;55.07
7774;BME280;3931;42.260;23.116;2022-11-21T10:03:10;94388.59;;;22.24;54.74
7774;BME280;3931;42.260;23.116;2022-11-21T10:05:40;94390.69;;;21.60;54.16
7774;BME280;3931;42.260;23.116;2022-11-21T10:08:16;94393.16;;;21.32;55.65
7774;BME280;3931;42.260;23.116;2022-11-21T10:10:53;94393.78;;;21.75;54.07
7774;BME280;3931;42.260;23.116;2022-11-21T10:13:29;94399.34;;;21.94;53.88
7774;BME280;3931;42.260;23.116;2022-11-21T10:16:01;94400.75;;;21.88;53.99
7774;BME280;3931;42.260;23.116;2022-11-21T10:18:45;94402.47;;;22.22;54.21
7774;BME280;3931;42.260;23.116;2022-11-21T10:21:28;94402.28;;;22.46;54.51
7774;BME280;3931;42.260;23.116;2022-11-21T10:24:08;94397.44;;;22.60;53.93
7774;BME280;3931;42.260;23.116;2022-11-21T10:26:44;94387.00;;;22.81;56.27
7774;BME280;3931;42.260;23.116;2022-11-21T10:29:18;94393.81;;;22.20;58.34
7774;BME280;3931;42.260;23.116;2022-11-21T10:31:45;94386.06;;;22.08;59.43
7774;BME280;3931;42.260;23.116;2022-11-21T10:34:15;94398.00;;;21.50;61.17
7774;BME280;3931;42.260;23.116;2022-11-21T10:36:46;94388.25;;;20.77;63.75
7774;BME280;3931;42.260;23.116;2022-11-21T10:39:18;94388.34;;;21.27;62.96
7774;BME280;3931;42.260;23.116;2022-11-21T10:41:49;94406.63;;;21.71;61.16
7774;BME280;3931;42.260;23.116;2022-11-21T10:44:24;94397.09;;;21.05;63.63
7774;BME280;3931;42.260;23.116;2022-11-21T10:47:13;94402.19;;;21.94;61.29
7774;BME280;3931;42.260;23.116;2022-11-21T10:49:41;94408.28;;;21.48;62.00
7774;BME280;3931;42.260;23.116;2022-11-21T10:52:11;94399.16;;;21.42;61.99
7774;BME280;3931;42.260;23.116;2022-11-21T10:55:07;94415.38;;;21.17;63.17
7774;BME280;3931;42.260;23.116;2022-11-21T10:57:42;94400.63;;;21.11;63.49
7774;BME280;3931;42.260;23.116;2022-11-21T11:00:18;94399.22;;;21.36;63.64
7774;BME280;3931;42.260;23.116;2022-11-21T11:03:05;94407.88;;;21.38;63.04
7774;BME280;3931;42.260;23.116;2022-11-21T11:05:34;94411.34;;;21.13;62.98
7774;BME280;3931;42.260;23.116;2022-11-21T11:08:04;94400.16;;;21.26;61.80
7774;BME280;3931;42.260;23.116;2022-11-21T11:10:31;94397.34;;;21.26;61.32
7774;BME280;3931;42.260;23.116;2022-11-21T11:12:57;94397.25;;;21.82;60.49
7774;BME280;3931;42.260;23.116;2022-11-21T11:15:54;94402.63;;;21.48;60.73
7774;BME280;3931;42.260;23.116;2022-11-21T11:18:21;94391.59;;;20.75;62.49
7774;BME280;3931;42.260;23.116;2022-11-21T11:20:49;94392.97;;;21.62;60.61
7774;BME280;3931;42.260;23.116;2022-11-21T11:23:22;94402.28;;;21.70;60.26
7774;BME280;3931;42.260;23.116;2022-11-21T11:25:50;94400.56;;;21.99;58.27
7774;BME280;3931;42.260;23.116;2022-11-21T11:28:17;94395.66;;;21.86;59.15
7774;BME280;3931;42.260;23.116;2022-11-21T11:30:45;94400.97;;;21.58;60.26
7774;BME280;3931;42.260;23.116;2022-11-21T11:33:32;94399.31;;;22.26;58.11
7774;BME280;3931;42.260;23.116;2022-11-21T11:36:11;94394.03;;;23.01;56.14
7774;BME280;3931;42.260;23.116;2022-11-21T11:38:40;94398.50;;;23.30;55.26
7774;BME280;3931;42.260;23.116;2022-11-21T11:41:13;94406.69;;;21.34;59.03
7774;BME280;3931;42.260;23.116;2022-11-21T11:43:53;94410.19;;;21.90;57.87
7774;BME280;3931;42.260;23.116;2022-11-21T11:46:44;94410.69;;;22.07;57.43
7774;BME280;3931;42.260;23.116;2022-11-21T11:49:35;94417.78;;;21.08;59.56
7774;BME280;3931;42.260;23.116;2022-11-21T11:52:26;94412.94;;;22.09;57.43
7774;BME280;3931;42.260;23.116;2022-11-21T11:54:58;94422.66;;;21.44;58.52
7774;BME280;3931;42.260;23.116;2022-11-21T11:57:29;94415.25;;;22.36;55.78
7774;BME280;3931;42.260;23.116;2022-11-21T12:00:03;94418.03;;;22.68;54.55
7774;BME280;3931;42.260;23.116;2022-11-21T12:02:40;94418.03;;;22.94;53.84
7774;BME280;3931;42.260;23.116;2022-11-21T12:05:14;94419.63;;;22.50;54.25
7774;BME280;3931;42.260;23.116;2022-11-21T12:07:47;94420.31;;;21.80;55.58
7774;BME280;3931;42.260;23.116;2022-11-21T12:10:22;94428.47;;;21.84;55.01
7774;BME280;3931;42.260;23.116;2022-11-21T12:12:51;94423.44;;;20.83;57.16
7774;BME280;3931;42.260;23.116;2022-11-21T12:15:22;94427.56;;;20.04;60.06
7774;BME280;3931;42.260;23.116;2022-11-21T12:18:13;94425.81;;;20.01;60.41
7774;BME280;3931;42.260;23.116;2022-11-21T12:20:47;94430.13;;;20.02;60.60
7774;BME280;3931;42.260;23.116;2022-11-21T12:23:17;94437.81;;;20.80;58.70
7774;BME280;3931;42.260;23.116;2022-11-21T12:26:08;94427.59;;;21.38;56.05
7774;BME280;3931;42.260;23.116;2022-11-21T12:28:46;94444.41;;;21.62;55.70
7774;BME280;3931;42.260;23.116;2022-11-21T12:31:21;94436.59;;;22.32;54.06
7774;BME280;3931;42.260;23.116;2022-11-21T12:33:57;94442.81;;;21.99;54.22
7774;BME280;3931;42.260;23.116;2022-11-21T12:36:34;94452.97;;;22.20;53.81
7774;BME280;3931;42.260;23.116;2022-11-21T12:39:34;94445.53;;;21.17;55.22
7774;BME280;3931;42.260;23.116;2022-11-21T12:42:10;94452.47;;;21.34;55.10
7774;BME280;3931;42.260;23.116;2022-11-21T12:45:09;94452.19;;;22.07;53.04
7774;BME280;3931;42.260;23.116;2022-11-21T12:47:54;94449.13;;;22.05;53.38
7774;BME280;3931;42.260;23.116;2022-11-21T12:50:49;94448.28;;;20.31;55.80
7774;BME280;3931;42.260;23.116;2022-11-21T12:53:41;94449.22;;;20.63;57.36
7774;BME280;3931;42.260;23.116;2022-11-21T12:56:36;94462.59;;;21.24;55.85
7774;BME280;3931;42.260;23.116;2022-11-21T12:59:06;94454.50;;;20.24;55.75
7774;BME280;3931;42.260;23.116;2022-11-21T13:01:39;94455.22;;;19.65;57.84
7774;BME280;3931;42.260;23.116;2022-11-21T13:04:12;94458.66;;;20.12;56.80
7774;BME280;3931;42.260;23.116;2022-11-21T13:06:42;94465.06;;;20.85;55.10
7774;BME280;3931;42.260;23.116;2022-11-21T13:09:13;94468.78;;;20.26;54.64
7774;BME280;3931;42.260;23.116;2022-11-21T13:11:50;94469.28;;;20.97;54.35
7774;BME280;3931;42.260;23.116;2022-11-21T13:14:28;94475.06;;;21.29;52.89
7774;BME280;3931;42.260;23.116;2022-11-21T13:17:07;94469.13;;;20.65;54.71
7774;BME280;3931;42.260;23.116;2022-11-21T13:19:44;94479.63;;;20.65;54.40
7774;BME280;3931;42.260;23.116;2022-11-21T13:22:48;94463.78;;;19.78;55.75